Massachusetts Logo

Fall River, MA Single Family Real Estate Listings

175 Total Real Estate Listings * Click on table heading to sort
Date Posted Property Type Style Address Price Living Area Lot Size Price/Sq Ft.
2017-07-20 Single Family Cape 1119 New Boston Road Fall River, MA 02720 $257,000 1,370 sq. ft. 12,632 sq. ft. $188
2017-07-20 Single Family Colonial 581 Stanley St Fall River, MA 02720 $269,500 1,694 sq. ft. 7,405 sq. ft. $159
2017-07-20 Single Family Ranch 621 Detroit St Fall River, MA 02721 $289,900 2,273 sq. ft. 9,148 sq. ft. $128
2017-07-19 Single Family Raised Ranch 60 Clarkson St Fall River, MA 02724 $319,900 1,958 sq. ft. 9,583 sq. ft. $163
2017-07-18 Single Family Ranch 79 Cook St Fall River, MA 02721 $204,900 1,298 sq. ft. 7,405 sq. ft. $158
2017-07-18 Single Family Garrison; Multi-Level 93 Foote St Fall River, MA 02724 $229,900 1,232 sq. ft. 7,841 sq. ft. $187
2017-07-18 Single Family Cottage 251 Cypress St Fall River, MA 02720 $229,900 1,138 sq. ft. 7,841 sq. ft. $202
2017-07-17 Single Family Cape 25 O'Hearn Fall River, MA 02720 $199,000 1,552 sq. ft. 3,920 sq. ft. $128
2017-07-17 Single Family Colonial 255 Laurel St Fall River, MA 02724 $295,000 1,800 sq. ft. 6,098 sq. ft. $164
2017-07-17 Single Family Ranch 129 Hemlock St Fall River, MA 02720 $269,900 1,220 sq. ft. 16,553 sq. ft. $221
2017-07-14 Single Family Cape 225 Wilson Rd Fall River, MA 02720 $264,900 1,812 sq. ft. 20,038 sq. ft. $146
2017-07-13 Single Family Cottage 1126 New Boston Fall River, MA 02720 $199,900 1,350 sq. ft. 3,485 sq. ft. $148
2017-07-11 Single Family Cape 180 Horizon Way Fall River, MA 02720 $329,900 1,562 sq. ft. 21,344 sq. ft. $211
2017-07-11 Single Family Contemporary 163 Highcrest Rd Fall River, MA 02720 $599,500 6,918 sq. ft. 83,200 sq. ft. $87
2017-07-11 Single Family 202 County Street Fall River, MA 02723 $420,000 898 sq. ft. 4,792 sq. ft. $468
2017-07-11 Single Family Colonial 499 Hanover St Fall River, MA 02720 $299,900 2,899 sq. ft. 10,019 sq. ft. $103
2017-07-11 Single Family Colonial 49 Barker St Fall River, MA 02724 $289,900 1,920 sq. ft. 5,663 sq. ft. $151
2017-07-11 Single Family Ranch 119 Andrews St Fall River, MA 02724 $239,900 1,416 sq. ft. 11,326 sq. ft. $169
2017-07-09 Single Family Cottage 27 Johnson St Fall River, MA 02723 $133,900 1,068 sq. ft. 5,663 sq. ft. $125
2017-07-09 Single Family Contemporary 551 Indian Town Rd Fall River, MA 02722 $549,999 4,072 sq. ft. 30,056 sq. ft. $135
2017-07-09 Single Family Ranch 187 Lake Avenue Fall River, MA 02721 $470,000 2,864 sq. ft. 21,780 sq. ft. $164
2017-07-07 Single Family Cottage 50 Johnson St Fall River, MA 02723 $99,000 794 sq. ft. 3,049 sq. ft. $125
2017-07-06 Single Family Colonial 367 Oak Grove Ave Fall River, MA 02723 $254,900 1,385 sq. ft. 8,712 sq. ft. $184
2017-07-05 Single Family Ranch 47 16th St Fall River, MA 02723 $149,900 864 sq. ft. 3,485 sq. ft. $173
2017-07-05 Single Family Ranch 704 Brayton Ave Fall River, MA 02721 $239,900 952 sq. ft. 10,454 sq. ft. $252
2017-07-05 Single Family Cape 842 Montgomery St Fall River, MA 02720 $349,900 3,099 sq. ft. 12,197 sq. ft. $113
2017-07-05 Single Family Colonial 432 Nichols St Fall River, MA 02720 $329,900 2,248 sq. ft. 12,197 sq. ft. $147
2017-07-05 Single Family Cape 124 Angell St Fall River, MA 02723 $164,900 1,126 sq. ft. 5,227 sq. ft. $146
2017-07-03 Single Family Colonial 85 Blaine St Fall River, MA 02723 $349,900 2,374 sq. ft. 5,663 sq. ft. $147
2017-07-03 Single Family Ranch 171 Chicago Fall River, MA 02721 $199,000 834 sq. ft. 12,197 sq. ft. $239
2017-07-03 Single Family Colonial 53 Buckley Street Fall River, MA 02723 $215,000 1,900 sq. ft. 7,841 sq. ft. $113
2017-07-01 Single Family Ranch 99 Tower Street Fall River, MA 02724 $169,900 1,713 sq. ft. 4,792 sq. ft. $99
2017-07-01 Single Family Ranch 567 Mohawk Dr Fall River, MA 02722 $392,000 1,858 sq. ft. 30,492 sq. ft. $211
2017-06-30 Single Family Colonial 506 Stevens St Fall River, MA 02721 $279,900 1,792 sq. ft. 5,227 sq. ft. $156
2017-06-30 Single Family Multi-Level 175 Lafayette St Fall River, MA 02723 $248,500 1,681 sq. ft. 7,405 sq. ft. $148
2017-06-30 Single Family Ranch 28 Quequechan St Fall River, MA 02723 $94,900 2,200 sq. ft. 8,712 sq. ft. $43
2017-06-30 Single Family Colonial 547 Stafford Rd Fall River, MA 02721 $269,000 1,876 sq. ft. 5,227 sq. ft. $143
2017-06-29 Single Family Colonial 724 Rodman St Fall River, MA 02721 $259,000 1,800 sq. ft. 6,098 sq. ft. $144
2017-06-28 Single Family Bungalow 115 Reney St Fall River, MA 02723 $119,900 861 sq. ft. 3,049 sq. ft. $139
2017-06-28 Single Family Colonial 25 Forest St Fall River, MA 02721 $79,900 1,771 sq. ft. 2,178 sq. ft. $45
2017-06-28 Single Family Cottage 303 Bridle Way Fall River, MA 02721 $199,000 856 sq. ft. 25,700 sq. ft. $232
2017-06-28 Single Family Cape 134 Winthrop St Fall River, MA 02721 $199,900 1,354 sq. ft. 7,405 sq. ft. $148
2017-06-27 Single Family Cottage 70 Chesworth St Fall River, MA 02723 $229,900 1,872 sq. ft. 6,534 sq. ft. $123
2017-06-26 Single Family Gambrel /Dutch 880 Madison Street Fall River, MA 02720 $309,000 1,910 sq. ft. 7,405 sq. ft. $162
2017-06-26 Single Family Colonial 73 Apple Creek Ln Fall River, MA 02720 $299,900 1,936 sq. ft. 6,970 sq. ft. $155
2017-06-26 Single Family Ranch 51 Francis St Fall River, MA 02724 $219,900 2,541 sq. ft. 9,148 sq. ft. $87
2017-06-26 Single Family Cape 0000 Powell Fall River, MA 02721 $289,900 1,860 sq. ft. 10,019 sq. ft. $156
2017-06-25 Single Family Colonial 66 King St Fall River, MA 02724 $259,900 1,944 sq. ft. 5,227 sq. ft. $134
2017-06-22 Single Family Colonial 415 Canedy St Fall River, MA 02720 $375,000 2,576 sq. ft. 9,148 sq. ft. $146
2017-06-21 Single Family Cottage 587 Slade St Fall River, MA 02724 $119,900 954 sq. ft. 3,920 sq. ft. $126
2017-06-21 Single Family Colonial 117 Colfax St Fall River, MA 02720 $165,000 1,704 sq. ft. 4,792 sq. ft. $97
2017-06-21 Single Family Colonial 339 Draper St Fall River, MA 02724 $369,900 2,200 sq. ft. 5,227 sq. ft. $168
2017-06-20 Single Family Colonial 105 Carter St Fall River, MA 02721 $162,900 1,334 sq. ft. 8,276 sq. ft. $122
2017-06-19 Single Family Ranch 96 Emmett St Fall River, MA 02721 $239,900 1,100 sq. ft. 8,712 sq. ft. $218
2017-06-19 Single Family Colonial 136 Dewey St Fall River, MA 02720 $317,000 2,816 sq. ft. 16,988 sq. ft. $113
2017-06-17 Single Family Colonial 63 Norman St Fall River, MA 02721 $229,000 1,213 sq. ft. 4,792 sq. ft. $189
2017-06-16 Single Family Ranch 280 Adams St Fall River, MA 02720 $250,000 1,600 sq. ft. 9,148 sq. ft. $156
2017-06-16 Single Family Ranch 480 North Eastern Avenue Fall River, MA 02723 $240,000 1,056 sq. ft. 11,761 sq. ft. $227
2017-06-15 Single Family Cottage 148 Thomas Street Fall River, MA 02723 $182,400 1,125 sq. ft. 3,049 sq. ft. $162
2017-06-14 Single Family Victorian 345 Hanover St Fall River, MA 02720 $289,000 2,242 sq. ft. 5,227 sq. ft. $129
2017-06-14 Single Family Cape; Other (See Remarks) 456 Smith St Fall River, MA 02721 $91,000 1,190 sq. ft. 7,841 sq. ft. $76
2017-06-13 Single Family Raised Ranch 531 Detroit Fall River, MA 02721 $289,900 1,972 sq. ft. 4,792 sq. ft. $147
2017-06-13 Single Family Contemporary 262 Baird St Fall River, MA 02721 $269,900 1,418 sq. ft. 6,534 sq. ft. $190
2017-06-12 Single Family Colonial 414 Bay St Fall River, MA 02724 $229,900 1,568 sq. ft. 2,614 sq. ft. $147
2017-06-12 Single Family Raised Ranch 250 Clarkson Fall River, MA 02724 $315,000 1,196 sq. ft. 15,246 sq. ft. $263
2017-06-09 Single Family Cottage 349 Warren St Fall River, MA 02721 $79,000 955 sq. ft. 3,485 sq. ft. $83
2017-06-09 Single Family Colonial 3 Kempton St Fall River, MA 02721 $318,900 1,872 sq. ft. 12,632 sq. ft. $170
2017-06-08 Single Family Tudor 663 Madison Street Fall River, MA 02720 $579,900 3,525 sq. ft. 12,197 sq. ft. $165
2017-06-08 Single Family Cape 175 Calvin St Fall River, MA 02720 $259,900 1,316 sq. ft. 10,890 sq. ft. $197
2017-06-07 Single Family Colonial; Raised Ranch 804 Laurel St Fall River, MA 02721 $264,900 2,072 sq. ft. 47,480 sq. ft. $128
2017-06-07 Single Family Colonial 883 Grinnell St Fall River, MA 02721 $279,900 1,140 sq. ft. 4,356 sq. ft. $246
2017-06-06 Single Family Ranch 82 Bark St Fall River, MA 02723 $225,000 1,216 sq. ft. 5,663 sq. ft. $185
2017-06-05 Single Family Cape 71 Ward St Fall River, MA 02720 $199,900 1,103 sq. ft. 6,970 sq. ft. $181
2017-06-05 Single Family Colonial 1276 Robeson Fall River, MA 02720 $319,900 2,372 sq. ft. 14,375 sq. ft. $135
2017-06-04 Single Family Cape 414 Buffinton Fall River, MA 02721 $289,900 2,100 sq. ft. 11,326 sq. ft. $138
2017-06-01 Single Family Colonial 165 Mcmahon St Fall River, MA 02721 $259,900 2,016 sq. ft. 10,454 sq. ft. $129
2017-06-01 Single Family Raised Ranch 20 Four Winds Fall River, MA 02720 $285,900 1,922 sq. ft. 13,504 sq. ft. $149
2017-06-01 Single Family Colonial 1335 Robeson St Fall River, MA 02720 $230,000 1,333 sq. ft. 5,663 sq. ft. $173
2017-05-31 Single Family Raised Ranch 283 Sterling Fall River, MA 02721 $299,000 2,352 sq. ft. 7,405 sq. ft. $127
2017-05-30 Single Family Ranch 963 Indian Town Road Fall River, MA 02790 $339,900 1,782 sq. ft. 95,396 sq. ft. $191
2017-05-30 Single Family Cape 722 Prospect St Fall River, MA 02720 $243,900 1,574 sq. ft. 5,663 sq. ft. $155
2017-05-30 Single Family Cape 147 Woodman St Fall River, MA 02724 $234,900 1,721 sq. ft. 6,534 sq. ft. $136
2017-05-28 Single Family Raised Ranch 510 No Eastern Ave Fall River, MA 02723 $334,900 3,400 sq. ft. 18,731 sq. ft. $98
2017-05-25 Single Family Colonial 896 Highland Ave Fall River, MA 02720 $399,900 3,360 sq. ft. 10,454 sq. ft. $119
2017-05-24 Single Family Split Entry 800 Langley St Fall River, MA 02720 $259,900 1,883 sq. ft. 8,276 sq. ft. $138
2017-05-24 Single Family Raised Ranch 195 Langley Street Fall River, MA 02720 $259,000 2,117 sq. ft. 8,276 sq. ft. $122
2017-05-22 Single Family Colonial 647 June St Fall River, MA 02720 $265,000 1,764 sq. ft. 8,276 sq. ft. $150
2017-05-22 Single Family Cape 279 Mott St Fall River, MA 02721 $189,000 1,391 sq. ft. 6,098 sq. ft. $136
2017-05-20 Single Family Cottage 142 Plain St Fall River, MA 02723 $143,900 1,372 sq. ft. 5,227 sq. ft. $105
2017-05-20 Single Family Raised Ranch 70 Townsend St Fall River, MA 02724 $254,900 2,094 sq. ft. 9,583 sq. ft. $122
2017-05-19 Single Family 503 Peckham St Fall River, MA 02721 $66,000 1,064 sq. ft. 5,227 sq. ft. $62
2017-05-19 Single Family Colonial 95 Laplante St Fall River, MA 02724 $469,000 3,963 sq. ft. 7,841 sq. ft. $118
2017-05-19 Single Family Cape 708 South Almond Fall River, MA 02724 $349,900 3,714 sq. ft. 12,632 sq. ft. $94
2017-05-18 Single Family Farmhouse; Cottage 560 Lawton Fall River, MA 02721 $239,900 1,834 sq. ft. 8,712 sq. ft. $131
2017-05-17 Single Family Colonial 88 Jones Street Fall River, MA 02720 $286,900 1,925 sq. ft. 7,841 sq. ft. $149
2017-05-16 Single Family Cottage 224 Kennedy St Fall River, MA 02721 $199,000 1,754 sq. ft. 6,098 sq. ft. $113
2017-05-15 Single Family Colonial; Contemporary 312 Hemlock Fall River, MA 02720 $289,000 1,492 sq. ft. 5,663 sq. ft. $194
2017-05-15 Single Family Cottage 38 Judge Street Fall River, MA 02721 $180,000 620 sq. ft. 10,019 sq. ft. $290
2017-05-11 Single Family Cape 160 Horizon Way Fall River, MA 02720 $299,900 2,190 sq. ft. 18,295 sq. ft. $137
2017-05-10 Single Family Cape 842 Montgomery Fall River, MA 02720 $359,900 2,326 sq. ft. 12,197 sq. ft. $155
2017-05-09 Single Family Ranch 41 Valentine St Fall River, MA 02720 $189,900 777 sq. ft. 5,227 sq. ft. $244
2017-05-09 Single Family Contemporary; Split Entry 350 Montgomery St Fall River, MA 02720 $325,000 1,407 sq. ft. 4,792 sq. ft. $231
2017-05-06 Single Family Ranch 490 Dickinson St Fall River, MA 02721 $269,000 972 sq. ft. 10,454 sq. ft. $277
2017-05-06 Single Family Raised Ranch 371 Courtney St Fall River, MA 02720 $339,900 1,512 sq. ft. 14,375 sq. ft. $225
2017-05-05 Single Family Colonial 85 Albany St Fall River, MA 02720 $419,900 2,800 sq. ft. 8,712 sq. ft. $150
2017-05-04 Single Family Colonial 305 Detroit St Fall River, MA 02721 $259,900 1,630 sq. ft. 5,227 sq. ft. $159
2017-05-03 Single Family 325 S. Beacon Street Fall River, MA 02724 $309,900 2,060 sq. ft. 12,197 sq. ft. $150
2017-05-03 Single Family 1308 N Main St Fall River, MA 02720 $109,900 624 sq. ft. 871 sq. ft. $176
2017-05-03 Single Family 122 Broadway Fall River, MA 02721 $145,900 1,116 sq. ft. 3,049 sq. ft. $131
2017-05-01 Single Family Cape 26 Burke St Fall River, MA 02720 $200,000 1,130 sq. ft. 4,792 sq. ft. $177
2017-05-01 Single Family Colonial 1920 Rodman St Fall River, MA 02721 $242,900 1,574 sq. ft. 4,792 sq. ft. $154
2017-04-30 Single Family Ranch 87 Butler Street Fall River, MA 02724 $239,900 1,248 sq. ft. 5,663 sq. ft. $192
2017-04-28 Single Family Cottage; Other (See Remarks) 578 Palmer Street Fall River, MA 02721 $159,000 1,440 sq. ft. 2,614 sq. ft. $110
2017-04-26 Single Family Cottage 352 State Ave Fall River, MA 02724 $149,900 1,585 sq. ft. 5,663 sq. ft. $95
2017-04-26 Single Family Ranch 353 Eldridge Fall River, MA 02720 $375,000 2,396 sq. ft. 17,860 sq. ft. $157
2017-04-24 Single Family Colonial 227 Cambridge St Fall River, MA 02721 $255,000 1,880 sq. ft. 4,792 sq. ft. $136
2017-04-24 Single Family Colonial 74 Harding St Fall River, MA 02720 $279,900 2,136 sq. ft. 5,663 sq. ft. $131
2017-04-24 Single Family Colonial LOT 3 Tiffany Fall River, MA 02723 $242,000 1,200 sq. ft. 6,098 sq. ft. $202
2017-04-20 Single Family Colonial 90 Foote St Fall River, MA 02724 $599,900 2,630 sq. ft. 4,356 sq. ft. $228
2017-04-19 Single Family Cape 343 Ludlow St Fall River, MA 02721 $239,000 1,313 sq. ft. 3,920 sq. ft. $182
2017-04-18 Single Family Split Entry 33 Woodman Fall River, MA 02724 $299,900 2,042 sq. ft. 7,841 sq. ft. $147
2017-04-17 Single Family Colonial 107 Quarry St Fall River, MA 02723 $225,000 2,475 sq. ft. 6,098 sq. ft. $91
2017-04-17 Single Family Raised Ranch 701 Charles St Fall River, MA 02724 $229,000 1,973 sq. ft. 5,663 sq. ft. $116
2017-04-17 Single Family Colonial 465 Valentine St Fall River, MA 02720 $309,900 1,715 sq. ft. 5,227 sq. ft. $181
2017-04-12 Single Family Colonial 100 Highcrest Rd Fall River, MA 02720 $359,000 2,350 sq. ft. 15,246 sq. ft. $153
2017-04-11 Single Family Ranch 240 Yellow Hill Rd Fall River, MA 02722 $310,000 2,008 sq. ft. 106,722 sq. ft. $154
2017-04-10 Single Family Contemporary 69 Manton St Fall River, MA 02724 $144,900 2,201 sq. ft. 5,227 sq. ft. $66
2017-04-10 Single Family Cottage 144 Spencer St Fall River, MA 02721 $239,900 1,053 sq. ft. 11,326 sq. ft. $228
2017-04-10 Single Family Ranch 651 Bowen Fall River, MA 02720 $179,900 1,088 sq. ft. 5,663 sq. ft. $165
2017-04-09 Single Family Victorian 225 Prospect Fall River, MA 02720 $490,000 4,844 sq. ft. 8,276 sq. ft. $101
2017-04-05 Single Family Cottage 812 Plymouth Ave Fall River, MA 02721 $129,500 978 sq. ft. 5,227 sq. ft. $132
2017-04-05 Single Family Raised Ranch 542 Spencer St Fall River, MA 02721 $284,900 2,764 sq. ft. 13,939 sq. ft. $103
2017-03-31 Single Family Cape 66 Merritt St Fall River, MA 02720 $249,900 1,574 sq. ft. 13,939 sq. ft. $159
2017-03-28 Single Family Raised Ranch; Split Entry 3715 N Main St Fall River, MA 02720 $249,900 1,510 sq. ft. 8,276 sq. ft. $165
2017-03-25 Single Family Colonial 133 Byron St Fall River, MA 02724 $229,900 1,186 sq. ft. 8,712 sq. ft. $194
2017-03-21 Single Family Cottage 46 Herman St Fall River, MA 02720 $124,900 1,042 sq. ft. 5,227 sq. ft. $120
2017-03-20 Single Family Bungalow 129 Horton St Fall River, MA 02723 $149,000 2,027 sq. ft. 2,614 sq. ft. $74
2017-03-20 Single Family Split Entry 22 Sprague St Fall River, MA 02724 $239,900 2,588 sq. ft. 13,068 sq. ft. $93
2017-03-17 Single Family Cape 95 Phillips St Fall River, MA 02720 $249,900 1,700 sq. ft. 7,405 sq. ft. $147
2017-03-15 Single Family Colonial 40 Blaine St Fall River, MA 02723 $289,900 2,016 sq. ft. 3,920 sq. ft. $144
2017-03-02 Single Family Colonial 184 Jones St Fall River, MA 02720 $239,000 2,254 sq. ft. 5,227 sq. ft. $106
2017-03-02 Single Family Raised Ranch 886 Copicut Rd Fall River, MA 02747 $339,000 2,000 sq. ft. 48,787 sq. ft. $170
2017-02-27 Single Family Colonial 407 Rochester St Fall River, MA 02720 $254,000 1,554 sq. ft. 4,792 sq. ft. $163
2017-02-13 Single Family Colonial 91 Bronson St Fall River, MA 02721 $264,900 1,554 sq. ft. 6,098 sq. ft. $170
2017-02-01 Single Family Ranch 2200 Highland Ave Fall River, MA 02720 $239,900 1,556 sq. ft. 6,534 sq. ft. $154
2017-01-30 Single Family Raised Ranch 216 Concord St Fall River, MA 02723 $299,900 1,932 sq. ft. 7,405 sq. ft. $155
2017-01-25 Single Family Cottage 66 Haskell St Fall River, MA 02720 $249,000 1,225 sq. ft. 11,326 sq. ft. $203
2017-01-06 Single Family Multi-Level 25 Porter St Fall River, MA 02723 $157,900 1,148 sq. ft. 5,663 sq. ft. $138
2017-01-03 Single Family Colonial 25 Forest St Fall River, MA 02721 $69,900 1,771 sq. ft. 2,178 sq. ft. $39
2017-01-02 Single Family Ranch 171 Chicago Fall River, MA 02721 $199,000 834 sq. ft. 12,197 sq. ft. $239
2017-01-02 Single Family Colonial 204 Snell St Fall River, MA 02721 $169,900 1,728 sq. ft. 1,742 sq. ft. $98
2016-12-31 Single Family Colonial 302 Sprague Fall River, MA 02724 $269,000 1,800 sq. ft. 5,227 sq. ft. $149
2016-12-30 Single Family Colonial 34 Daisy Ln Fall River, MA 02721 $279,900 1,976 sq. ft. 9,583 sq. ft. $142
2016-12-21 Single Family Cottage 826 Broadway Fall River, MA 02724 $182,900 1,322 sq. ft. 4,356 sq. ft. $138
2016-12-20 Single Family Farmhouse 661 3rd St Fall River, MA 02721 $119,999 1,325 sq. ft. 3,049 sq. ft. $91
2016-12-20 Single Family Colonial 150 Summerfield St Fall River, MA 02720 $229,000 1,460 sq. ft. 4,792 sq. ft. $157
2016-12-19 Single Family Cottage 53 Lewis Street Fall River, MA 02724 $199,000 662 sq. ft. 7,405 sq. ft. $301
2016-12-17 Single Family Cottage 56 Atlantic Blvd Fall River, MA 02724 $199,900 1,150 sq. ft. 8,712 sq. ft. $174
2016-12-09 Single Family Cottage 225 Mount Pleasant St Fall River, MA 02720 $99,000 796 sq. ft. 5,663 sq. ft. $124
2016-12-07 Single Family Ranch 284 Orswell St Fall River, MA 02724 $229,900 1,050 sq. ft. 5,227 sq. ft. $219
2016-11-28 Single Family Colonial 288 Montgomery St Fall River, MA 02720 $239,900 2,334 sq. ft. 6,970 sq. ft. $103
2016-11-18 Single Family Colonial 37 Tone St Fall River, MA 02724 $258,000 1,800 sq. ft. 6,534 sq. ft. $143
2016-11-01 Single Family Raised Ranch 265 Whitefield St Fall River, MA 02721 $254,987 1,912 sq. ft. 5,663 sq. ft. $133
2016-10-28 Single Family Split Entry 201 Montgomery Circle Fall River, MA 02720 $460,000 4,014 sq. ft. 12,197 sq. ft. $115
2016-10-13 Single Family 81 Barrett St Fall River, MA 02724 $232,000 1,228 sq. ft. 7,405 sq. ft. $189
2016-10-06 Single Family Colonial 642 Cambridge St Fall River, MA 02721 $264,000 3,942 sq. ft. 6,970 sq. ft. $67
2016-08-30 Single Family Raised Ranch 162 Weetamoe St Fall River, MA 02720 $289,900 1,803 sq. ft. 7,405 sq. ft. $161
2016-08-29 Single Family Colonial 393 Courtney St Fall River, MA 02720 $349,900 2,016 sq. ft. 14,810 sq. ft. $174
2016-08-26 Single Family Cottage 4 Atlantic Blvd Fall River, MA 02724 $125,000 2,041 sq. ft. 5,227 sq. ft. $61
2016-08-20 Single Family Colonial 674 Highland Ave Fall River, MA 02720 $699,000 5,916 sq. ft. 21,344 sq. ft. $118
2016-07-29 Single Family Cottage 4 Riverview St Fall River, MA 02724 $119,900 420 sq. ft. 14,375 sq. ft. $285
2016-07-27 Single Family Colonial 2299 Highland Avenue Fall River, MA 02720 $260,000 2,511 sq. ft. 22,216 sq. ft. $104
2016-06-22 Single Family Colonial 424 Courtney St Fall River, MA 02720 $314,900 1,592 sq. ft. 13,068 sq. ft. $198
2015-11-04 Single Family Cottage 56 Gagnon St Fall River, MA 02723 $94,000 1,279 sq. ft. 3,920 sq. ft. $73
2015-07-10 Single Family Cape 222 Albion Street Fall River, MA 02723 $99,900 775 sq. ft. 2,178 sq. ft. $129